sensor_id;sensor_type;location;lat;lon;timestamp;temperature;humidity
21001;DHT22;10658;50.920;12.238;2023-08-07T00:02:58;14.50;99.90
21001;DHT22;10658;50.920;12.238;2023-08-07T00:07:00;14.50;99.90
21001;DHT22;10658;50.920;12.238;2023-08-07T00:11:09;14.50;99.90
21001;DHT22;10658;50.920;12.238;2023-08-07T00:15:10;14.50;99.90
21001;DHT22;10658;50.920;12.238;2023-08-07T00:19:12;14.50;99.90
21001;DHT22;10658;50.920;12.238;2023-08-07T00:23:14;14.50;99.90
21001;DHT22;10658;50.920;12.238;2023-08-07T00:27:15;14.40;99.90
21001;DHT22;10658;50.920;12.238;2023-08-07T00:31:17;14.50;99.90
21001;DHT22;10658;50.920;12.238;2023-08-07T00:35:19;14.40;99.90
21001;DHT22;10658;50.920;12.238;2023-08-07T00:39:21;14.50;99.90
21001;DHT22;10658;50.920;12.238;2023-08-07T00:43:22;14.50;99.90
21001;DHT22;10658;50.920;12.238;2023-08-07T00:47:24;14.50;99.90
21001;DHT22;10658;50.920;12.238;2023-08-07T00:51:27;14.40;99.90
21001;DHT22;10658;50.920;12.238;2023-08-07T00:55:28;14.40;99.90
21001;DHT22;10658;50.920;12.238;2023-08-07T00:59:31;14.30;99.90
21001;DHT22;10658;50.920;12.238;2023-08-07T01:03:33;14.40;99.90
21001;DHT22;10658;50.920;12.238;2023-08-07T01:07:34;14.30;99.90
21001;DHT22;10658;50.920;12.238;2023-08-07T01:12:19;14.20;99.90
21001;DHT22;10658;50.920;12.238;2023-08-07T01:16:57;14.30;99.90
21001;DHT22;10658;50.920;12.238;2023-08-07T01:21:03;14.30;99.90
21001;DHT22;10658;50.920;12.238;2023-08-07T01:25:04;14.20;99.90
21001;DHT22;10658;50.920;12.238;2023-08-07T01:29:12;14.20;99.90
21001;DHT22;10658;50.920;12.238;2023-08-07T01:37:29;14.20;99.90
21001;DHT22;10658;50.920;12.238;2023-08-07T01:41:32;14.20;99.90
21001;DHT22;10658;50.920;12.238;2023-08-07T01:45:33;14.20;99.90
21001;DHT22;10658;50.920;12.238;2023-08-07T01:49:34;14.20;99.90
21001;DHT22;10658;50.920;12.238;2023-08-07T01:53:36;14.20;99.90
21001;DHT22;10658;50.920;12.238;2023-08-07T01:57:39;14.20;99.90
21001;DHT22;10658;50.920;12.238;2023-08-07T02:01:41;14.20;99.90
21001;DHT22;10658;50.920;12.238;2023-08-07T02:05:45;14.20;99.90
21001;DHT22;10658;50.920;12.238;2023-08-07T02:09:46;14.20;99.90
21001;DHT22;10658;50.920;12.238;2023-08-07T02:13:48;14.20;99.90
21001;DHT22;10658;50.920;12.238;2023-08-07T02:17:49;14.20;99.90
21001;DHT22;10658;50.920;12.238;2023-08-07T02:21:50;14.30;99.90
21001;DHT22;10658;50.920;12.238;2023-08-07T02:25:51;14.30;99.90
21001;DHT22;10658;50.920;12.238;2023-08-07T02:29:54;14.30;99.90
21001;DHT22;10658;50.920;12.238;2023-08-07T02:33:55;14.30;99.90
21001;DHT22;10658;50.920;12.238;2023-08-07T02:37:56;14.40;99.90
21001;DHT22;10658;50.920;12.238;2023-08-07T02:41:57;14.40;99.90
21001;DHT22;10658;50.920;12.238;2023-08-07T02:45:59;14.30;99.90
21001;DHT22;10658;50.920;12.238;2023-08-07T02:50:00;14.30;99.90
21001;DHT22;10658;50.920;12.238;2023-08-07T02:54:03;14.40;99.90
21001;DHT22;10658;50.920;12.238;2023-08-07T02:58:09;14.40;99.90
21001;DHT22;10658;50.920;12.238;2023-08-07T03:02:14;14.40;99.90
21001;DHT22;10658;50.920;12.238;2023-08-07T03:06:16;14.40;99.90
21001;DHT22;10658;50.920;12.238;2023-08-07T03:10:20;14.40;99.90
21001;DHT22;10658;50.920;12.238;2023-08-07T03:14:24;14.40;99.90
21001;DHT22;10658;50.920;12.238;2023-08-07T03:18:33;14.40;99.90
21001;DHT22;10658;50.920;12.238;2023-08-07T03:22:39;14.30;99.90
21001;DHT22;10658;50.920;12.238;2023-08-07T03:26:45;14.30;99.90
21001;DHT22;10658;50.920;12.238;2023-08-07T03:30:51;14.30;99.90
21001;DHT22;10658;50.920;12.238;2023-08-07T03:34:58;14.20;99.90
21001;DHT22;10658;50.920;12.238;2023-08-07T03:39:04;14.30;99.90
21001;DHT22;10658;50.920;12.238;2023-08-07T03:43:09;14.20;99.90
21001;DHT22;10658;50.920;12.238;2023-08-07T03:47:17;14.20;99.90
21001;DHT22;10658;50.920;12.238;2023-08-07T03:51:27;14.20;99.90
21001;DHT22;10658;50.920;12.238;2023-08-07T03:55:35;14.10;99.90
21001;DHT22;10658;50.920;12.238;2023-08-07T03:59:41;14.10;99.90
21001;DHT22;10658;50.920;12.238;2023-08-07T04:03:48;14.10;99.90
21001;DHT22;10658;50.920;12.238;2023-08-07T04:07:54;14.10;99.90
21001;DHT22;10658;50.920;12.238;2023-08-07T04:12:00;14.10;99.90
21001;DHT22;10658;50.920;12.238;2023-08-07T04:16:06;14.00;99.90
21001;DHT22;10658;50.920;12.238;2023-08-07T04:20:12;14.10;99.90
21001;DHT22;10658;50.920;12.238;2023-08-07T04:24:18;14.00;99.90
21001;DHT22;10658;50.920;12.238;2023-08-07T04:28:29;14.00;99.90
21001;DHT22;10658;50.920;12.238;2023-08-07T04:32:34;14.00;99.90
21001;DHT22;10658;50.920;12.238;2023-08-07T04:36:40;14.00;99.90
21001;DHT22;10658;50.920;12.238;2023-08-07T04:40:50;14.00;99.90
21001;DHT22;10658;50.920;12.238;2023-08-07T04:44:55;14.00;99.90
21001;DHT22;10658;50.920;12.238;2023-08-07T04:48:59;14.00;99.90
21001;DHT22;10658;50.920;12.238;2023-08-07T04:53:07;14.00;99.90
21001;DHT22;10658;50.920;12.238;2023-08-07T04:57:12;14.00;99.90
21001;DHT22;10658;50.920;12.238;2023-08-07T05:01:17;14.00;99.90
21001;DHT22;10658;50.920;12.238;2023-08-07T05:05:23;14.00;99.90
21001;DHT22;10658;50.920;12.238;2023-08-07T05:09:28;14.00;99.90
21001;DHT22;10658;50.920;12.238;2023-08-07T05:13:32;14.00;99.90
21001;DHT22;10658;50.920;12.238;2023-08-07T05:17:37;14.00;99.90
21001;DHT22;10658;50.920;12.238;2023-08-07T05:21:42;13.90;99.90
21001;DHT22;10658;50.920;12.238;2023-08-07T05:25:48;13.80;99.90
21001;DHT22;10658;50.920;12.238;2023-08-07T05:29:53;13.70;99.90
21001;DHT22;10658;50.920;12.238;2023-08-07T05:33:58;13.70;99.90
21001;DHT22;10658;50.920;12.238;2023-08-07T05:38:03;13.60;99.90
21001;DHT22;10658;50.920;12.238;2023-08-07T05:42:08;13.60;99.90
21001;DHT22;10658;50.920;12.238;2023-08-07T05:46:15;13.70;99.90
21001;DHT22;10658;50.920;12.238;2023-08-07T05:50:21;13.70;99.90
21001;DHT22;10658;50.920;12.238;2023-08-07T05:54:27;13.70;99.90
21001;DHT22;10658;50.920;12.238;2023-08-07T05:58:32;13.60;99.90
21001;DHT22;10658;50.920;12.238;2023-08-07T06:02:37;13.70;99.90
21001;DHT22;10658;50.920;12.238;2023-08-07T06:06:43;13.70;99.90
21001;DHT22;10658;50.920;12.238;2023-08-07T06:10:50;13.70;99.90
21001;DHT22;10658;50.920;12.238;2023-08-07T06:14:55;13.60;99.90
21001;DHT22;10658;50.920;12.238;2023-08-07T06:19:01;13.70;99.90
21001;DHT22;10658;50.920;12.238;2023-08-07T06:23:07;13.70;99.90
21001;DHT22;10658;50.920;12.238;2023-08-07T06:27:12;13.90;99.90
21001;DHT22;10658;50.920;12.238;2023-08-07T06:31:19;13.80;99.90
21001;DHT22;10658;50.920;12.238;2023-08-07T06:35:24;13.80;99.90
21001;DHT22;10658;50.920;12.238;2023-08-07T06:39:30;13.80;99.90
21001;DHT22;10658;50.920;12.238;2023-08-07T06:43:35;13.90;99.90
21001;DHT22;10658;50.920;12.238;2023-08-07T06:47:41;13.90;99.90
21001;DHT22;10658;50.920;12.238;2023-08-07T06:51:47;14.00;99.90
21001;DHT22;10658;50.920;12.238;2023-08-07T06:55:52;14.10;99.90
21001;DHT22;10658;50.920;12.238;2023-08-07T06:59:57;14.10;99.90
21001;DHT22;10658;50.920;12.238;2023-08-07T07:04:02;14.20;99.90
21001;DHT22;10658;50.920;12.238;2023-08-07T07:08:08;14.30;99.90
21001;DHT22;10658;50.920;12.238;2023-08-07T07:12:13;14.30;99.90
21001;DHT22;10658;50.920;12.238;2023-08-07T07:16:19;14.30;99.90
21001;DHT22;10658;50.920;12.238;2023-08-07T07:20:25;14.30;99.90
21001;DHT22;10658;50.920;12.238;2023-08-07T07:24:31;14.30;99.90
21001;DHT22;10658;50.920;12.238;2023-08-07T07:28:36;14.50;99.90
21001;DHT22;10658;50.920;12.238;2023-08-07T07:32:45;14.60;99.90
21001;DHT22;10658;50.920;12.238;2023-08-07T07:37:25;14.80;99.90
21001;DHT22;10658;50.920;12.238;2023-08-07T07:42:52;14.80;99.90
21001;DHT22;10658;50.920;12.238;2023-08-07T07:47:54;14.90;99.90
21001;DHT22;10658;50.920;12.238;2023-08-07T07:52:00;14.80;99.90
21001;DHT22;10658;50.920;12.238;2023-08-07T07:56:06;14.80;99.90
21001;DHT22;10658;50.920;12.238;2023-08-07T08:00:12;14.90;99.90
21001;DHT22;10658;50.920;12.238;2023-08-07T08:04:17;15.00;99.90
21001;DHT22;10658;50.920;12.238;2023-08-07T08:08:23;15.20;99.90
21001;DHT22;10658;50.920;12.238;2023-08-07T08:12:30;15.10;99.90
21001;DHT22;10658;50.920;12.238;2023-08-07T08:16:35;15.20;99.90
21001;DHT22;10658;50.920;12.238;2023-08-07T08:20:41;15.10;99.90
21001;DHT22;10658;50.920;12.238;2023-08-07T08:24:46;15.10;99.90
21001;DHT22;10658;50.920;12.238;2023-08-07T08:28:55;15.00;99.90
21001;DHT22;10658;50.920;12.238;2023-08-07T08:33:00;14.90;99.90
21001;DHT22;10658;50.920;12.238;2023-08-07T08:37:06;15.00;99.90
21001;DHT22;10658;50.920;12.238;2023-08-07T08:41:12;15.00;99.90
21001;DHT22;10658;50.920;12.238;2023-08-07T08:45:20;15.10;99.90
21001;DHT22;10658;50.920;12.238;2023-08-07T08:49:30;15.40;99.90
21001;DHT22;10658;50.920;12.238;2023-08-07T08:53:38;15.90;99.90
21001;DHT22;10658;50.920;12.238;2023-08-07T08:57:44;16.00;99.90
21001;DHT22;10658;50.920;12.238;2023-08-07T09:01:52;16.10;99.90
21001;DHT22;10658;50.920;12.238;2023-08-07T09:05:59;16.10;99.90
21001;DHT22;10658;50.920;12.238;2023-08-07T09:10:05;16.20;99.90
21001;DHT22;10658;50.920;12.238;2023-08-07T09:14:13;16.10;99.90
21001;DHT22;10658;50.920;12.238;2023-08-07T09:18:20;16.10;99.90
21001;DHT22;10658;50.920;12.238;2023-08-07T09:22:26;16.10;99.90
21001;DHT22;10658;50.920;12.238;2023-08-07T09:26:36;16.30;99.90
21001;DHT22;10658;50.920;12.238;2023-08-07T09:30:42;16.40;99.90
21001;DHT22;10658;50.920;12.238;2023-08-07T09:34:50;16.70;99.90
21001;DHT22;10658;50.920;12.238;2023-08-07T09:38:56;16.80;99.90
21001;DHT22;10658;50.920;12.238;2023-08-07T09:43:02;16.70;99.90
21001;DHT22;10658;50.920;12.238;2023-08-07T09:47:18;16.70;99.90
21001;DHT22;10658;50.920;12.238;2023-08-07T09:56:44;16.80;99.90
21001;DHT22;10658;50.920;12.238;2023-08-07T10:00:52;16.90;99.90
21001;DHT22;10658;50.920;12.238;2023-08-07T10:04:59;16.80;99.90
21001;DHT22;10658;50.920;12.238;2023-08-07T10:09:08;16.80;99.90
21001;DHT22;10658;50.920;12.238;2023-08-07T10:13:14;16.70;99.90
21001;DHT22;10658;50.920;12.238;2023-08-07T10:17:23;17.10;99.90
21001;DHT22;10658;50.920;12.238;2023-08-07T10:21:29;17.40;99.90
21001;DHT22;10658;50.920;12.238;2023-08-07T10:25:37;17.30;99.90
21001;DHT22;10658;50.920;12.238;2023-08-07T10:29:45;16.70;99.90
21001;DHT22;10658;50.920;12.238;2023-08-07T10:33:51;16.60;99.90
21001;DHT22;10658;50.920;12.238;2023-08-07T10:38:09;16.50;99.90
21001;DHT22;10658;50.920;12.238;2023-08-07T10:42:15;16.60;99.90
21001;DHT22;10658;50.920;12.238;2023-08-07T10:46:22;16.90;99.90
21001;DHT22;10658;50.920;12.238;2023-08-07T10:50:32;17.20;99.90
21001;DHT22;10658;50.920;12.238;2023-08-07T10:54:44;17.40;99.90
21001;DHT22;10658;50.920;12.238;2023-08-07T10:58:51;18.20;99.90
21001;DHT22;10658;50.920;12.238;2023-08-07T11:07:48;18.80;99.90
21001;DHT22;10658;50.920;12.238;2023-08-07T11:11:54;18.90;99.90
21001;DHT22;10658;50.920;12.238;2023-08-07T11:16:00;18.50;99.90
21001;DHT22;10658;50.920;12.238;2023-08-07T11:20:06;17.70;99.90
21001;DHT22;10658;50.920;12.238;2023-08-07T11:24:15;17.80;99.90
21001;DHT22;10658;50.920;12.238;2023-08-07T11:28:24;17.80;99.90
21001;DHT22;10658;50.920;12.238;2023-08-07T11:32:30;18.00;99.90
21001;DHT22;10658;50.920;12.238;2023-08-07T11:36:41;17.90;99.90
21001;DHT22;10658;50.920;12.238;2023-08-07T11:40:48;18.10;99.90
21001;DHT22;10658;50.920;12.238;2023-08-07T11:44:53;18.80;99.90
21001;DHT22;10658;50.920;12.238;2023-08-07T11:48:59;19.20;99.90
21001;DHT22;10658;50.920;12.238;2023-08-07T11:53:04;18.50;99.90
21001;DHT22;10658;50.920;12.238;2023-08-07T11:57:24;18.10;99.90
21001;DHT22;10658;50.920;12.238;2023-08-07T12:01:29;18.60;99.90
21001;DHT22;10658;50.920;12.238;2023-08-07T12:05:41;18.70;99.90
21001;DHT22;10658;50.920;12.238;2023-08-07T12:09:47;18.70;99.90
21001;DHT22;10658;50.920;12.238;2023-08-07T12:13:54;18.70;99.90
21001;DHT22;10658;50.920;12.238;2023-08-07T12:18:06;18.80;99.90
21001;DHT22;10658;50.920;12.238;2023-08-07T12:22:12;18.70;99.90
21001;DHT22;10658;50.920;12.238;2023-08-07T12:26:18;19.00;99.90
21001;DHT22;10658;50.920;12.238;2023-08-07T12:30:24;19.50;99.90
21001;DHT22;10658;50.920;12.238;2023-08-07T12:34:30;19.70;99.90
21001;DHT22;10658;50.920;12.238;2023-08-07T12:38:36;19.90;99.90
21001;DHT22;10658;50.920;12.238;2023-08-07T12:42:42;20.00;99.90
21001;DHT22;10658;50.920;12.238;2023-08-07T12:46:48;20.20;99.90
21001;DHT22;10658;50.920;12.238;2023-08-07T12:50:54;19.60;99.90
21001;DHT22;10658;50.920;12.238;2023-08-07T12:54:59;19.10;99.90
21001;DHT22;10658;50.920;12.238;2023-08-07T12:59:05;18.60;99.90
21001;DHT22;10658;50.920;12.238;2023-08-07T13:03:11;18.40;99.90
21001;DHT22;10658;50.920;12.238;2023-08-07T13:07:19;18.50;99.90
21001;DHT22;10658;50.920;12.238;2023-08-07T13:11:24;18.40;99.90
21001;DHT22;10658;50.920;12.238;2023-08-07T13:15:30;18.40;99.90
21001;DHT22;10658;50.920;12.238;2023-08-07T13:19:36;18.40;99.90
21001;DHT22;10658;50.920;12.238;2023-08-07T13:23:43;18.30;99.90
21001;DHT22;10658;50.920;12.238;2023-08-07T13:27:49;17.60;99.90
21001;DHT22;10658;50.920;12.238;2023-08-07T13:31:55;17.30;99.90
21001;DHT22;10658;50.920;12.238;2023-08-07T13:36:00;17.60;99.90
21001;DHT22;10658;50.920;12.238;2023-08-07T13:40:07;17.90;99.90
21001;DHT22;10658;50.920;12.238;2023-08-07T13:44:15;18.00;99.90
21001;DHT22;10658;50.920;12.238;2023-08-07T13:48:21;18.00;99.90
21001;DHT22;10658;50.920;12.238;2023-08-07T13:52:30;17.70;99.90
21001;DHT22;10658;50.920;12.238;2023-08-07T13:56:36;17.40;99.90
21001;DHT22;10658;50.920;12.238;2023-08-07T14:00:42;17.30;99.90
21001;DHT22;10658;50.920;12.238;2023-08-07T14:04:47;17.20;99.90
21001;DHT22;10658;50.920;12.238;2023-08-07T14:08:54;17.30;99.90
21001;DHT22;10658;50.920;12.238;2023-08-07T14:12:59;17.20;99.90
21001;DHT22;10658;50.920;12.238;2023-08-07T14:17:05;16.60;99.90
21001;DHT22;10658;50.920;12.238;2023-08-07T14:21:11;16.30;99.90
21001;DHT22;10658;50.920;12.238;2023-08-07T14:25:16;16.20;99.90
21001;DHT22;10658;50.920;12.238;2023-08-07T14:29:22;16.30;99.90
21001;DHT22;10658;50.920;12.238;2023-08-07T14:33:31;17.10;99.90
21001;DHT22;10658;50.920;12.238;2023-08-07T14:37:40;17.60;99.90
21001;DHT22;10658;50.920;12.238;2023-08-07T14:41:46;18.00;99.90
21001;DHT22;10658;50.920;12.238;2023-08-07T14:45:53;17.90;99.90
21001;DHT22;10658;50.920;12.238;2023-08-07T14:49:59;18.20;99.90
21001;DHT22;10658;50.920;12.238;2023-08-07T14:54:05;19.00;99.90
21001;DHT22;10658;50.920;12.238;2023-08-07T14:58:10;18.70;99.90
21001;DHT22;10658;50.920;12.238;2023-08-07T15:02:16;18.20;99.90
21001;DHT22;10658;50.920;12.238;2023-08-07T15:06:22;17.60;99.90
21001;DHT22;10658;50.920;12.238;2023-08-07T15:10:28;16.60;99.90
21001;DHT22;10658;50.920;12.238;2023-08-07T15:14:34;16.10;99.90
21001;DHT22;10658;50.920;12.238;2023-08-07T15:18:41;15.90;99.90
21001;DHT22;10658;50.920;12.238;2023-08-07T15:22:47;15.70;99.90
21001;DHT22;10658;50.920;12.238;2023-08-07T15:26:53;15.60;99.90
21001;DHT22;10658;50.920;12.238;2023-08-07T15:30:59;16.00;99.90
21001;DHT22;10658;50.920;12.238;2023-08-07T15:35:05;16.20;99.90
21001;DHT22;10658;50.920;12.238;2023-08-07T15:39:11;16.60;99.90
21001;DHT22;10658;50.920;12.238;2023-08-07T15:43:17;16.20;99.90
21001;DHT22;10658;50.920;12.238;2023-08-07T15:47:25;15.80;99.90
21001;DHT22;10658;50.920;12.238;2023-08-07T15:51:40;15.60;99.90
21001;DHT22;10658;50.920;12.238;2023-08-07T15:55:51;15.60;99.90
21001;DHT22;10658;50.920;12.238;2023-08-07T15:59:57;15.50;99.90
21001;DHT22;10658;50.920;12.238;2023-08-07T16:04:04;15.30;99.90
21001;DHT22;10658;50.920;12.238;2023-08-07T16:08:10;15.30;99.90
21001;DHT22;10658;50.920;12.238;2023-08-07T16:12:16;15.70;99.90
21001;DHT22;10658;50.920;12.238;2023-08-07T16:16:22;16.30;99.90
21001;DHT22;10658;50.920;12.238;2023-08-07T16:20:28;16.60;99.90
21001;DHT22;10658;50.920;12.238;2023-08-07T16:24:37;16.10;99.90
21001;DHT22;10658;50.920;12.238;2023-08-07T16:28:43;16.10;99.90
21001;DHT22;10658;50.920;12.238;2023-08-07T16:32:51;15.90;99.90
21001;DHT22;10658;50.920;12.238;2023-08-07T16:36:58;15.90;99.90
21001;DHT22;10658;50.920;12.238;2023-08-07T16:41:05;16.00;99.90
21001;DHT22;10658;50.920;12.238;2023-08-07T16:45:10;16.10;99.90
21001;DHT22;10658;50.920;12.238;2023-08-07T16:49:15;16.30;99.90
21001;DHT22;10658;50.920;12.238;2023-08-07T16:53:21;16.70;99.90
21001;DHT22;10658;50.920;12.238;2023-08-07T16:57:28;16.50;99.90
21001;DHT22;10658;50.920;12.238;2023-08-07T17:01:34;16.40;99.90
21001;DHT22;10658;50.920;12.238;2023-08-07T17:05:41;16.20;99.90
21001;DHT22;10658;50.920;12.238;2023-08-07T17:09:48;16.00;99.90
21001;DHT22;10658;50.920;12.238;2023-08-07T17:13:56;16.00;99.90
21001;DHT22;10658;50.920;12.238;2023-08-07T17:18:02;15.90;99.90
21001;DHT22;10658;50.920;12.238;2023-08-07T17:22:08;16.10;99.90
21001;DHT22;10658;50.920;12.238;2023-08-07T17:26:13;16.00;99.90
21001;DHT22;10658;50.920;12.238;2023-08-07T17:30:20;16.00;99.90
21001;DHT22;10658;50.920;12.238;2023-08-07T17:34:27;16.10;99.90
21001;DHT22;10658;50.920;12.238;2023-08-07T17:38:35;16.20;99.90
21001;DHT22;10658;50.920;12.238;2023-08-07T17:42:41;16.30;99.90
21001;DHT22;10658;50.920;12.238;2023-08-07T17:46:47;16.50;99.90
21001;DHT22;10658;50.920;12.238;2023-08-07T17:50:54;16.30;99.90
21001;DHT22;10658;50.920;12.238;2023-08-07T17:55:00;16.30;99.90
21001;DHT22;10658;50.920;12.238;2023-08-07T17:59:07;16.20;99.90
21001;DHT22;10658;50.920;12.238;2023-08-07T18:03:14;16.20;99.90
21001;DHT22;10658;50.920;12.238;2023-08-07T18:07:21;16.20;99.90
21001;DHT22;10658;50.920;12.238;2023-08-07T18:11:27;16.10;99.90
21001;DHT22;10658;50.920;12.238;2023-08-07T18:15:33;16.10;99.90
21001;DHT22;10658;50.920;12.238;2023-08-07T18:19:42;16.00;99.90
21001;DHT22;10658;50.920;12.238;2023-08-07T18:23:49;15.90;99.90
21001;DHT22;10658;50.920;12.238;2023-08-07T18:27:55;15.80;99.90
21001;DHT22;10658;50.920;12.238;2023-08-07T18:32:05;15.60;99.90
21001;DHT22;10658;50.920;12.238;2023-08-07T18:36:15;15.60;99.90
21001;DHT22;10658;50.920;12.238;2023-08-07T18:40:20;15.50;99.90
21001;DHT22;10658;50.920;12.238;2023-08-07T18:44:26;15.30;99.90
21001;DHT22;10658;50.920;12.238;2023-08-07T18:48:31;15.20;99.90
21001;DHT22;10658;50.920;12.238;2023-08-07T18:53:05;15.10;99.90
21001;DHT22;10658;50.920;12.238;2023-08-07T18:58:51;14.90;99.90
21001;DHT22;10658;50.920;12.238;2023-08-07T19:03:24;14.70;99.90
21001;DHT22;10658;50.920;12.238;2023-08-07T19:07:30;14.50;99.90
21001;DHT22;10658;50.920;12.238;2023-08-07T19:11:37;14.30;99.90
21001;DHT22;10658;50.920;12.238;2023-08-07T19:15:43;14.20;99.90
21001;DHT22;10658;50.920;12.238;2023-08-07T19:19:50;14.10;99.90
21001;DHT22;10658;50.920;12.238;2023-08-07T19:23:56;14.10;99.90
21001;DHT22;10658;50.920;12.238;2023-08-07T19:28:04;14.20;99.90
21001;DHT22;10658;50.920;12.238;2023-08-07T19:32:19;14.00;99.90
21001;DHT22;10658;50.920;12.238;2023-08-07T19:36:26;13.90;99.90
21001;DHT22;10658;50.920;12.238;2023-08-07T19:40:32;13.90;99.90
21001;DHT22;10658;50.920;12.238;2023-08-07T19:44:42;13.80;99.90
21001;DHT22;10658;50.920;12.238;2023-08-07T19:48:50;13.80;99.90
21001;DHT22;10658;50.920;12.238;2023-08-07T19:53:07;13.90;99.90
21001;DHT22;10658;50.920;12.238;2023-08-07T19:57:24;13.90;99.90
21001;DHT22;10658;50.920;12.238;2023-08-07T20:01:51;13.90;99.90
21001;DHT22;10658;50.920;12.238;2023-08-07T20:06:25;13.90;99.90
21001;DHT22;10658;50.920;12.238;2023-08-07T20:10:39;14.00;99.90
21001;DHT22;10658;50.920;12.238;2023-08-07T20:15:08;13.90;99.90
21001;DHT22;10658;50.920;12.238;2023-08-07T20:19:28;14.00;99.90
21001;DHT22;10658;50.920;12.238;2023-08-07T20:23:46;13.90;99.90
21001;DHT22;10658;50.920;12.238;2023-08-07T20:28:16;13.80;99.90
21001;DHT22;10658;50.920;12.238;2023-08-07T20:32:35;13.80;99.90
21001;DHT22;10658;50.920;12.238;2023-08-07T20:37:12;13.80;99.90
21001;DHT22;10658;50.920;12.238;2023-08-07T20:42:06;13.80;99.90
21001;DHT22;10658;50.920;12.238;2023-08-07T20:46:57;13.80;99.90
21001;DHT22;10658;50.920;12.238;2023-08-07T20:51:19;13.70;99.90
21001;DHT22;10658;50.920;12.238;2023-08-07T20:55:20;13.80;99.90
21001;DHT22;10658;50.920;12.238;2023-08-07T20:59:22;13.80;99.90
21001;DHT22;10658;50.920;12.238;2023-08-07T21:03:23;13.70;99.90
21001;DHT22;10658;50.920;12.238;2023-08-07T21:07:24;13.60;99.90
21001;DHT22;10658;50.920;12.238;2023-08-07T21:11:25;13.60;99.90
21001;DHT22;10658;50.920;12.238;2023-08-07T21:15:29;13.60;99.90
21001;DHT22;10658;50.920;12.238;2023-08-07T21:19:31;13.50;99.90
21001;DHT22;10658;50.920;12.238;2023-08-07T21:23:33;13.40;99.90
21001;DHT22;10658;50.920;12.238;2023-08-07T21:27:35;13.30;99.90
21001;DHT22;10658;50.920;12.238;2023-08-07T21:31:36;13.20;99.90
21001;DHT22;10658;50.920;12.238;2023-08-07T21:35:38;13.20;99.90
21001;DHT22;10658;50.920;12.238;2023-08-07T21:39:39;13.10;99.90
21001;DHT22;10658;50.920;12.238;2023-08-07T21:43:45;13.10;99.90
21001;DHT22;10658;50.920;12.238;2023-08-07T21:47:51;13.10;99.90
21001;DHT22;10658;50.920;12.238;2023-08-07T21:51:53;12.90;99.90
21001;DHT22;10658;50.920;12.238;2023-08-07T21:55:57;12.90;99.90
21001;DHT22;10658;50.920;12.238;2023-08-07T21:59:58;12.90;99.90
21001;DHT22;10658;50.920;12.238;2023-08-07T22:03:58;12.80;99.90
21001;DHT22;10658;50.920;12.238;2023-08-07T22:07:59;12.80;99.90
21001;DHT22;10658;50.920;12.238;2023-08-07T22:12:01;12.70;99.90
21001;DHT22;10658;50.920;12.238;2023-08-07T22:16:02;12.60;99.90
21001;DHT22;10658;50.920;12.238;2023-08-07T22:20:03;12.50;99.90
21001;DHT22;10658;50.920;12.238;2023-08-07T22:24:05;12.40;99.90
21001;DHT22;10658;50.920;12.238;2023-08-07T22:28:07;12.40;99.90
21001;DHT22;10658;50.920;12.238;2023-08-07T22:32:08;12.40;99.90
21001;DHT22;10658;50.920;12.238;2023-08-07T22:36:09;12.30;99.90
21001;DHT22;10658;50.920;12.238;2023-08-07T22:40:12;12.20;99.90
21001;DHT22;10658;50.920;12.238;2023-08-07T22:44:13;12.20;99.90
21001;DHT22;10658;50.920;12.238;2023-08-07T22:48:14;12.20;99.90
21001;DHT22;10658;50.920;12.238;2023-08-07T22:52:14;12.20;99.90
21001;DHT22;10658;50.920;12.238;2023-08-07T22:56:15;12.20;99.90
21001;DHT22;10658;50.920;12.238;2023-08-07T23:00:17;12.20;99.90
21001;DHT22;10658;50.920;12.238;2023-08-07T23:04:18;12.10;99.90
21001;DHT22;10658;50.920;12.238;2023-08-07T23:08:19;12.10;99.90
21001;DHT22;10658;50.920;12.238;2023-08-07T23:12:20;12.10;99.90
21001;DHT22;10658;50.920;12.238;2023-08-07T23:16:21;12.10;99.90
21001;DHT22;10658;50.920;12.238;2023-08-07T23:20:23;12.00;99.90
21001;DHT22;10658;50.920;12.238;2023-08-07T23:24:24;11.90;99.90
21001;DHT22;10658;50.920;12.238;2023-08-07T23:28:25;11.90;99.90
21001;DHT22;10658;50.920;12.238;2023-08-07T23:32:26;11.90;99.90
21001;DHT22;10658;50.920;12.238;2023-08-07T23:36:27;11.90;99.90
21001;DHT22;10658;50.920;12.238;2023-08-07T23:40:28;11.90;99.90
21001;DHT22;10658;50.920;12.238;2023-08-07T23:44:29;12.00;99.90
21001;DHT22;10658;50.920;12.238;2023-08-07T23:48:29;11.90;99.90
21001;DHT22;10658;50.920;12.238;2023-08-07T23:52:30;11.90;99.90
21001;DHT22;10658;50.920;12.238;2023-08-07T23:56:31;11.80;99.90
